Terminal Aerodrome Forecast
Issued by NWS

Home | Current Version | Previous Version | Text Only | Print | Product List | Glossary On
Versions: 1 2 3 4 5 6 7 8 9 10 11 12 13 14 15 16 17 18 19 20 21 22 23 24
000
FTUS43 KDLH 221500 AAA
TAFBRD
TAF AMD
KBRD 221515Z 2215/2312 14009KT 4SM BR OVC006
      TEMPO 2215/2218 2SM -DZ BR
     FM221800 13008KT 3SM -SNRA BR SCT004 OVC007
      TEMPO 2218/2222 1SM -SN VV004
     FM222200 11005KT 1SM -DZ BR OVC004
     FM230300 08007KT 1SM -SN BR OVC004
     FM230900 03007KT 2SM BR OVC008=

USA.gov is the U.S. government's official web portal to all federal, state and local government web resources and services.